Terminal Aerodrome Forecast
Issued by NWS

Home | Current Version | Previous Version | Text Only | Print | Product List | Glossary On
Versions: 1 2 3 4 5 6 7 8 9 10 11 12 13 14 15 16 17
580
FTUS46 KMFR 260538
TAFRBG
TAF
KRBG 260538Z 2606/2706 32007KT P6SM SKC
     FM261100 35005KT P6SM BKN015
     FM261800 01007KT P6SM SCT020
     FM262100 36012G20KT P6SM SKC=

USA.gov is the U.S. government's official web portal to all federal, state and local government web resources and services.